createdAt,value
2022-09-27T00:01:44.680Z,54.81
2022-09-27T00:04:12.792Z,54.01
2022-09-27T00:06:41.078Z,54.50
2022-09-27T00:09:09.492Z,54.25
2022-09-27T00:11:42.798Z,54.07
2022-09-27T00:14:12.645Z,54.49
2022-09-27T00:16:41.270Z,55.71
2022-09-27T00:19:12.467Z,56.56
2022-09-27T00:21:39.755Z,55.72
2022-09-27T00:24:06.609Z,54.82
2022-09-27T00:26:33.360Z,55.21
2022-09-27T00:29:00.219Z,53.85
2022-09-27T00:31:30.255Z,54.98
2022-09-27T00:34:01.149Z,54.05
2022-09-27T00:36:29.194Z,54.22
2022-09-27T00:38:59.819Z,54.03
2022-09-27T00:41:36.194Z,54.81
2022-09-27T00:44:25.076Z,55.19
2022-09-27T00:47:11.514Z,54.49
2022-09-27T00:49:41.322Z,55.28
2022-09-27T00:52:16.406Z,55.34
2022-09-27T00:54:46.231Z,55.03
2022-09-27T00:57:13.205Z,55.25
2022-09-27T00:59:46.453Z,55.14
2022-09-27T01:02:13.991Z,54.56
2022-09-27T01:04:42.454Z,54.76
2022-09-27T01:07:09.475Z,55.43
2022-09-27T01:09:36.443Z,55.15
2022-09-27T01:12:40.685Z,54.63
2022-09-27T01:15:34.900Z,54.87
2022-09-27T01:18:20.873Z,56.27
2022-09-27T01:21:25.519Z,56.37
2022-09-27T01:24:15.414Z,57.46
2022-09-27T01:26:45.711Z,57.11
2022-09-27T01:29:41.841Z,56.91
2022-09-27T01:32:15.576Z,55.97
2022-09-27T01:34:46.993Z,56.24
2022-09-27T01:37:31.316Z,56.41
2022-09-27T01:40:37.420Z,57.01
2022-09-27T01:43:32.960Z,56.04
2022-09-27T01:46:08.329Z,55.60
2022-09-27T01:49:10.971Z,55.72
2022-09-27T01:51:48.061Z,55.20
2022-09-27T01:54:23.957Z,56.75
2022-09-27T01:57:35.512Z,56.41
2022-09-27T02:00:09.806Z,55.86
2022-09-27T02:03:06.035Z,55.65
2022-09-27T02:05:43.110Z,55.48
2022-09-27T02:08:41.916Z,56.41
2022-09-27T02:11:21.005Z,57.52
2022-09-27T02:14:15.569Z,56.96
2022-09-27T02:16:55.159Z,56.36
2022-09-27T02:19:43.280Z,57.06
2022-09-27T02:22:31.448Z,59.10
2022-09-27T02:25:16.842Z,57.85
2022-09-27T02:27:57.936Z,57.97
2022-09-27T02:30:28.750Z,57.77
2022-09-27T02:33:06.071Z,57.40
2022-09-27T02:35:34.608Z,58.45
2022-09-27T02:38:03.283Z,57.00
2022-09-27T02:40:33.573Z,56.88
2022-09-27T02:43:03.692Z,56.72
2022-09-27T02:45:42.776Z,56.64
2022-09-27T02:48:16.024Z,56.29
2022-09-27T02:51:07.274Z,56.41
2022-09-27T02:54:11.756Z,55.99
2022-09-27T02:57:22.716Z,57.17
2022-09-27T03:00:19.761Z,57.10
2022-09-27T03:03:27.234Z,56.58
2022-09-27T03:06:08.155Z,56.50
2022-09-27T03:08:37.903Z,57.05
2022-09-27T03:11:05.849Z,57.14
2022-09-27T03:13:45.841Z,56.72
2022-09-27T03:16:22.381Z,57.21
2022-09-27T03:19:00.310Z,57.36
2022-09-27T03:21:45.670Z,56.39
2022-09-27T03:24:12.416Z,55.87
2022-09-27T03:26:39.910Z,56.52
2022-09-27T03:29:06.919Z,56.50
2022-09-27T03:31:34.195Z,57.64
2022-09-27T03:34:30.162Z,58.58
2022-09-27T03:36:57.263Z,57.65
2022-09-27T03:39:24.489Z,56.99
2022-09-27T03:41:51.422Z,56.72
2022-09-27T03:44:18.267Z,56.50
2022-09-27T03:46:45.247Z,57.94
2022-09-27T03:49:12.174Z,58.36
2022-09-27T03:51:39.054Z,58.99
2022-09-27T03:54:05.796Z,58.49
2022-09-27T03:56:33.266Z,58.53
2022-09-27T03:59:01.297Z,57.13
2022-09-27T04:01:35.192Z,58.58
2022-09-27T04:04:16.803Z,60.75
2022-09-27T04:06:43.733Z,60.06
2022-09-27T04:09:10.494Z,60.04
2022-09-27T04:11:57.696Z,59.99
2022-09-27T04:14:24.551Z,58.81
2022-09-27T04:17:14.162Z,58.63
2022-09-27T04:20:12.735Z,57.95
2022-09-27T04:22:45.521Z,57.98
2022-09-27T04:25:12.559Z,58.63
2022-09-27T04:27:45.715Z,58.45
2022-09-27T04:30:13.235Z,58.82
2022-09-27T04:32:57.957Z,59.19
2022-09-27T04:36:01.981Z,58.10
2022-09-27T04:38:29.444Z,58.87
2022-09-27T04:40:56.656Z,58.32
2022-09-27T04:43:24.548Z,58.33
2022-09-27T04:45:51.825Z,57.64
2022-09-27T04:48:18.872Z,57.98
2022-09-27T04:50:47.820Z,56.63
2022-09-27T04:53:15.719Z,56.85
2022-09-27T04:55:47.426Z,56.55
2022-09-27T04:58:14.436Z,56.98
2022-09-27T05:00:43.176Z,59.20
2022-09-27T05:03:37.595Z,57.90
2022-09-27T05:06:12.733Z,57.40
2022-09-27T05:08:39.792Z,57.41
2022-09-27T05:11:26.876Z,57.06
2022-09-27T05:14:14.189Z,57.61
2022-09-27T05:17:04.427Z,57.89
2022-09-27T05:19:34.921Z,57.62
2022-09-27T05:22:02.095Z,57.87
2022-09-27T05:24:29.312Z,57.72
2022-09-27T05:26:56.119Z,57.88
2022-09-27T05:29:23.176Z,57.28
2022-09-27T05:32:04.569Z,56.68
2022-09-27T05:34:32.684Z,56.46
2022-09-27T05:37:00.738Z,56.71
2022-09-27T05:39:30.442Z,56.19
2022-09-27T05:41:57.649Z,56.50
2022-09-27T05:44:26.043Z,56.04
2022-09-27T05:47:03.313Z,56.35
2022-09-27T05:49:32.039Z,57.04
2022-09-27T05:51:59.523Z,56.56
2022-09-27T05:54:29.679Z,56.65
2022-09-27T05:56:59.239Z,55.95
2022-09-27T05:59:55.566Z,55.95
2022-09-27T06:02:22.581Z,55.78
2022-09-27T06:05:26.715Z,56.52
2022-09-27T06:08:13.043Z,55.51
2022-09-27T06:10:48.043Z,56.01
2022-09-27T06:13:18.925Z,56.37
2022-09-27T06:15:47.294Z,56.62
2022-09-27T06:18:18.853Z,56.96
2022-09-27T06:20:48.699Z,56.75
2022-09-27T06:23:18.995Z,57.69
2022-09-27T06:25:48.752Z,58.06
2022-09-27T06:28:21.531Z,58.48
2022-09-27T06:30:52.668Z,58.46
2022-09-27T06:33:26.746Z,59.05
2022-09-27T06:35:55.119Z,58.92
2022-09-27T06:38:23.978Z,59.64
2022-09-27T06:41:20.062Z,58.84
2022-09-27T06:44:11.333Z,58.38
2022-09-27T06:46:56.955Z,59.48
2022-09-27T06:49:30.960Z,60.41
2022-09-27T06:51:59.785Z,58.38
2022-09-27T06:54:26.496Z,59.01
2022-09-27T06:56:53.155Z,58.21
2022-09-27T06:59:38.542Z,58.06
2022-09-27T07:02:27.894Z,58.77
2022-09-27T07:05:00.992Z,58.76
2022-09-27T07:07:47.899Z,58.20
2022-09-27T07:10:18.359Z,57.78
2022-09-27T07:12:48.646Z,57.28
2022-09-27T07:15:16.514Z,57.25
2022-09-27T07:17:44.263Z,56.93
2022-09-27T07:20:11.753Z,56.48
2022-09-27T07:22:45.864Z,56.42
2022-09-27T07:25:14.568Z,57.44
2022-09-27T07:27:44.119Z,56.97
2022-09-27T07:30:12.270Z,56.99
2022-09-27T07:32:38.939Z,57.02
2022-09-27T07:35:09.713Z,56.66
2022-09-27T07:37:38.144Z,56.80
2022-09-27T07:40:09.282Z,58.21
2022-09-27T07:42:41.746Z,57.92
2022-09-27T07:45:09.776Z,59.10
2022-09-27T07:47:55.054Z,58.00
2022-09-27T07:50:44.180Z,59.66
2022-09-27T07:53:31.274Z,58.35
2022-09-27T07:56:18.093Z,60.70
2022-09-27T07:58:47.007Z,59.85
2022-09-27T08:01:14.223Z,59.75
2022-09-27T08:03:41.242Z,58.64
2022-09-27T08:06:08.562Z,59.25
2022-09-27T08:08:35.584Z,59.73
2022-09-27T08:11:14.605Z,61.13
2022-09-27T08:13:42.947Z,60.07
2022-09-27T08:16:11.285Z,61.80
2022-09-27T08:18:56.444Z,60.70
2022-09-27T08:21:43.803Z,59.81
2022-09-27T08:24:28.562Z,60.32
2022-09-27T08:27:21.351Z,59.36
2022-09-27T08:29:53.221Z,59.53
2022-09-27T08:32:23.235Z,61.38
2022-09-27T08:34:51.217Z,61.06
2022-09-27T08:37:20.695Z,59.94
2022-09-27T08:39:48.672Z,60.95
2022-09-27T08:42:52.829Z,60.71
2022-09-27T08:45:29.725Z,60.14
2022-09-27T08:48:02.998Z,60.38
2022-09-27T08:50:42.620Z,59.81
2022-09-27T08:53:15.401Z,60.25
2022-09-27T08:55:48.116Z,60.46
2022-09-27T08:58:29.972Z,59.56
2022-09-27T09:01:00.711Z,59.54
2022-09-27T09:03:35.407Z,59.22
2022-09-27T09:06:17.143Z,60.91
2022-09-27T09:09:05.828Z,59.73
2022-09-27T09:12:15.208Z,60.13
2022-09-27T09:15:03.975Z,60.24
2022-09-27T09:17:33.814Z,58.75
2022-09-27T09:20:44.769Z,58.58
2022-09-27T09:23:40.335Z,59.14
2022-09-27T09:26:13.321Z,59.70
2022-09-27T09:28:46.995Z,60.25
2022-09-27T09:31:29.095Z,59.37
2022-09-27T09:34:14.423Z,59.11
2022-09-27T09:37:04.636Z,58.60
2022-09-27T09:39:52.765Z,58.37
2022-09-27T09:42:40.683Z,58.40
2022-09-27T09:45:13.355Z,58.31
2022-09-27T09:48:01.958Z,59.07
2022-09-27T09:50:35.199Z,57.70
2022-09-27T09:53:27.672Z,58.31
2022-09-27T09:56:07.835Z,57.88
2022-09-27T09:59:02.588Z,56.92
2022-09-27T10:01:43.807Z,57.13
2022-09-27T10:04:33.966Z,57.86
2022-09-27T10:07:02.604Z,57.57
2022-09-27T10:09:33.904Z,58.26
2022-09-27T10:12:36.809Z,59.12
2022-09-27T10:15:06.635Z,58.13
2022-09-27T10:17:40.077Z,59.40
2022-09-27T10:20:42.429Z,59.62
2022-09-27T10:23:22.532Z,58.27
2022-09-27T10:26:11.201Z,58.09
2022-09-27T10:28:47.556Z,58.45
2022-09-27T10:31:21.105Z,58.72
2022-09-27T10:34:05.745Z,57.78
2022-09-27T10:36:44.173Z,57.77
2022-09-27T10:39:35.828Z,57.48
2022-09-27T10:42:30.628Z,57.53
2022-09-27T10:44:57.661Z,56.26
2022-09-27T10:47:32.856Z,57.30
2022-09-27T10:50:49.048Z,58.40
2022-09-27T10:53:22.753Z,57.76
2022-09-27T10:55:59.337Z,56.12
2022-09-27T10:58:31.142Z,56.78
2022-09-27T11:01:04.536Z,58.45
2022-09-27T11:03:52.060Z,58.69
2022-09-27T11:06:37.698Z,58.29
2022-09-27T11:09:27.046Z,57.93
2022-09-27T11:12:14.756Z,57.86
2022-09-27T11:14:51.700Z,56.75
2022-09-27T11:17:27.452Z,57.93
2022-09-27T11:20:28.771Z,56.26
2022-09-27T11:23:23.334Z,55.83
2022-09-27T11:26:17.798Z,57.09
2022-09-27T11:28:50.807Z,56.42
2022-09-27T11:32:07.708Z,57.13
2022-09-27T11:34:54.747Z,55.21
2022-09-27T11:38:07.248Z,58.25
2022-09-27T11:41:03.253Z,55.55
2022-09-27T11:43:46.272Z,54.52
2022-09-27T11:46:41.728Z,53.81
2022-09-27T11:49:11.164Z,53.30
2022-09-27T11:51:58.257Z,52.48
2022-09-27T11:54:48.625Z,52.38
2022-09-27T11:57:23.138Z,51.72
2022-09-27T11:59:56.229Z,51.55
2022-09-27T12:02:22.997Z,51.69
2022-09-27T12:05:14.225Z,51.84
2022-09-27T12:08:04.183Z,51.79
2022-09-27T12:10:31.848Z,49.17
2022-09-27T12:12:59.326Z,50.25
2022-09-27T12:15:36.161Z,49.33
2022-09-27T12:18:13.246Z,48.46
2022-09-27T12:20:42.267Z,48.46
2022-09-27T12:23:25.087Z,49.62
2022-09-27T12:26:35.087Z,47.84
2022-09-27T12:29:14.577Z,46.87
2022-09-27T12:31:47.314Z,45.71
2022-09-27T12:34:19.835Z,45.11
2022-09-27T12:37:12.487Z,44.55
2022-09-27T12:39:49.204Z,44.65
2022-09-27T12:42:33.540Z,44.33
2022-09-27T12:45:10.670Z,43.92
2022-09-27T12:47:50.387Z,41.91
2022-09-27T12:50:44.583Z,42.86
2022-09-27T12:53:23.062Z,41.34
2022-09-27T12:56:10.704Z,41.54
2022-09-27T12:58:55.479Z,40.17
2022-09-27T13:02:08.571Z,40.58
2022-09-27T13:05:29.640Z,39.34
2022-09-27T13:08:54.615Z,38.02
2022-09-27T13:11:36.947Z,38.17
2022-09-27T13:14:05.538Z,38.30
2022-09-27T13:16:46.547Z,36.04
2022-09-27T13:19:34.293Z,34.89
2022-09-27T13:22:04.906Z,35.18
2022-09-27T13:25:55.366Z,34.25
2022-09-27T13:28:52.343Z,35.19
2022-09-27T13:31:59.323Z,34.37
2022-09-27T13:34:53.831Z,33.21
2022-09-27T13:37:28.826Z,32.40
2022-09-27T13:40:15.250Z,32.17
2022-09-27T13:43:11.285Z,27.97
2022-09-27T13:46:00.181Z,28.66
2022-09-27T13:48:57.184Z,32.10
2022-09-27T13:51:42.019Z,33.60
2022-09-27T13:54:33.823Z,32.94
2022-09-27T13:57:02.800Z,31.98
2022-09-27T13:59:44.099Z,30.97
2022-09-27T14:02:42.269Z,31.59
2022-09-27T14:05:20.474Z,33.18
2022-09-27T14:07:50.543Z,34.01
2022-09-27T14:10:24.271Z,33.22
2022-09-27T14:12:53.364Z,31.84
2022-09-27T14:15:27.382Z,32.91
2022-09-27T14:17:56.004Z,32.01
2022-09-27T14:20:32.989Z,33.78
2022-09-27T14:23:03.507Z,36.65
2022-09-27T14:25:39.866Z,37.67
2022-09-27T14:28:29.200Z,38.60
2022-09-27T14:31:14.900Z,38.21
2022-09-27T14:34:15.452Z,38.33
2022-09-27T14:37:07.177Z,38.79
2022-09-27T14:39:45.412Z,38.70
2022-09-27T14:42:32.480Z,39.90
2022-09-27T14:45:05.121Z,39.56
2022-09-27T14:47:32.786Z,41.31
2022-09-27T14:50:17.769Z,42.28
2022-09-27T14:52:45.064Z,41.56
2022-09-27T14:55:20.923Z,42.08
2022-09-27T14:57:52.636Z,43.33
2022-09-27T15:00:23.300Z,41.54
2022-09-27T15:02:55.037Z,42.09
2022-09-27T15:05:25.523Z,42.53
2022-09-27T15:07:55.799Z,42.57
2022-09-27T15:10:27.784Z,42.92
2022-09-27T15:12:59.884Z,42.09
2022-09-27T15:15:35.759Z,45.01
2022-09-27T15:18:23.710Z,50.09
2022-09-27T15:20:54.695Z,56.01
2022-09-27T15:23:36.613Z,55.30
2022-09-27T15:26:03.543Z,53.99
2022-09-27T15:28:30.467Z,50.19
2022-09-27T15:30:58.645Z,50.39
2022-09-27T15:33:34.970Z,51.77
2022-09-27T15:36:05.982Z,49.87
2022-09-27T15:38:48.703Z,50.24
2022-09-27T15:41:17.776Z,49.41
2022-09-27T15:43:52.751Z,51.57
2022-09-27T15:46:22.585Z,52.41
2022-09-27T15:49:22.948Z,50.57
2022-09-27T15:51:52.444Z,50.37
2022-09-27T15:54:30.837Z,51.81
2022-09-27T15:57:04.400Z,52.34
2022-09-27T15:59:36.321Z,50.62
2022-09-27T16:02:12.679Z,52.07
2022-09-27T16:04:39.771Z,54.56
2022-09-27T16:07:09.056Z,54.10
2022-09-27T16:09:36.388Z,55.28
2022-09-27T16:12:03.119Z,57.17
2022-09-27T16:14:29.806Z,57.60
2022-09-27T16:17:02.182Z,58.04
2022-09-27T16:19:28.987Z,57.14
2022-09-27T16:21:55.873Z,58.03
2022-09-27T16:24:23.905Z,55.98
2022-09-27T16:26:50.885Z,52.94
2022-09-27T16:29:17.818Z,52.37
2022-09-27T16:31:45.774Z,51.00
2022-09-27T16:34:13.442Z,51.26
2022-09-27T16:36:40.715Z,52.04
2022-09-27T16:39:12.799Z,53.15
2022-09-27T16:41:41.454Z,56.50
2022-09-27T16:44:13.010Z,55.77
2022-09-27T16:46:41.967Z,54.50
2022-09-27T16:49:28.306Z,53.78
2022-09-27T16:52:01.477Z,52.89
2022-09-27T16:54:30.009Z,51.90
2022-09-27T16:56:58.948Z,52.07
2022-09-27T16:59:26.080Z,50.10
2022-09-27T17:01:57.567Z,51.52
2022-09-27T17:04:26.432Z,51.78
2022-09-27T17:06:56.988Z,53.12
2022-09-27T17:09:24.589Z,52.78
2022-09-27T17:11:51.778Z,53.49
2022-09-27T17:14:19.000Z,53.19
2022-09-27T17:16:49.743Z,53.01
2022-09-27T17:19:18.485Z,53.50
2022-09-27T17:21:46.353Z,53.51
2022-09-27T17:24:13.563Z,53.14
2022-09-27T17:26:40.893Z,53.60
2022-09-27T17:29:09.817Z,53.33
2022-09-27T17:31:39.928Z,53.34
2022-09-27T17:34:12.534Z,53.55
2022-09-27T17:36:48.105Z,53.16
2022-09-27T17:39:21.324Z,53.53
2022-09-27T17:41:49.822Z,53.95
2022-09-27T17:44:21.635Z,54.24
2022-09-27T17:47:09.370Z,54.54
2022-09-27T17:49:55.159Z,54.13
2022-09-27T17:52:25.689Z,53.74
2022-09-27T17:54:55.664Z,53.61
2022-09-27T17:57:22.450Z,53.85
2022-09-27T17:59:49.471Z,53.66
2022-09-27T18:02:16.378Z,54.06
2022-09-27T18:04:43.272Z,54.30
2022-09-27T18:07:12.291Z,53.10
2022-09-27T18:09:39.396Z,54.60
2022-09-27T18:12:06.224Z,54.61
2022-09-27T18:14:33.797Z,54.23
2022-09-27T18:17:00.892Z,54.08
2022-09-27T18:19:27.865Z,53.55
2022-09-27T18:21:54.794Z,53.91
2022-09-27T18:24:21.717Z,53.74
2022-09-27T18:26:49.092Z,53.00
2022-09-27T18:29:20.856Z,53.60
2022-09-27T18:31:49.134Z,53.03
2022-09-27T18:34:18.147Z,53.04
2022-09-27T18:36:45.617Z,53.36
2022-09-27T18:39:15.828Z,53.45
2022-09-27T18:41:43.301Z,53.68
2022-09-27T18:44:12.540Z,53.90
2022-09-27T18:46:39.924Z,53.69
2022-09-27T18:49:10.731Z,54.73
2022-09-27T18:51:44.845Z,54.17
2022-09-27T18:54:19.193Z,53.92
2022-09-27T18:56:48.348Z,54.12
2022-09-27T18:59:16.517Z,54.93
2022-09-27T19:01:47.754Z,54.68
2022-09-27T19:04:21.562Z,53.91
2022-09-27T19:06:53.409Z,54.09
2022-09-27T19:09:20.247Z,54.74
2022-09-27T19:11:49.552Z,54.16
2022-09-27T19:14:19.724Z,54.72
2022-09-27T19:16:47.989Z,55.19
2022-09-27T19:19:18.921Z,55.28
2022-09-27T19:21:46.839Z,54.41
2022-09-27T19:24:15.563Z,53.93
2022-09-27T19:26:44.072Z,54.37
2022-09-27T19:29:13.043Z,54.08
2022-09-27T19:31:41.337Z,54.11
2022-09-27T19:34:08.235Z,54.63
2022-09-27T19:36:35.159Z,55.72
2022-09-27T19:39:03.730Z,55.05
2022-09-27T19:41:30.485Z,55.74
2022-09-27T19:43:57.801Z,56.02
2022-09-27T19:46:26.079Z,55.64
2022-09-27T19:48:55.169Z,55.63
2022-09-27T19:51:26.061Z,54.96
2022-09-27T19:53:55.031Z,54.69
2022-09-27T19:56:24.742Z,55.05
2022-09-27T19:58:51.920Z,54.58
2022-09-27T20:01:20.564Z,54.56
2022-09-27T20:03:51.134Z,55.33
2022-09-27T20:06:20.772Z,59.46
2022-09-27T20:08:48.436Z,58.06
2022-09-27T20:11:20.199Z,57.13
2022-09-27T20:13:50.589Z,57.75
2022-09-27T20:16:19.684Z,57.98
2022-09-27T20:18:51.068Z,58.44
2022-09-27T20:21:19.114Z,57.69
2022-09-27T20:23:49.357Z,56.92
2022-09-27T20:26:17.498Z,57.30
2022-09-27T20:28:50.298Z,56.86
2022-09-27T20:31:19.928Z,57.11
2022-09-27T20:33:49.747Z,57.30
2022-09-27T20:36:38.049Z,57.43
2022-09-27T20:39:06.992Z,57.35
2022-09-27T20:41:36.940Z,57.12
2022-09-27T20:44:07.097Z,56.79
2022-09-27T20:46:35.473Z,56.00
2022-09-27T20:49:05.296Z,56.52
2022-09-27T20:51:33.424Z,56.98
2022-09-27T20:54:01.291Z,56.64
2022-09-27T20:56:31.471Z,56.38
2022-09-27T20:59:01.000Z,56.24
2022-09-27T21:01:29.400Z,56.22
2022-09-27T21:03:58.539Z,56.11
2022-09-27T21:06:27.153Z,55.62
2022-09-27T21:08:54.718Z,56.00
2022-09-27T21:11:22.808Z,55.75
2022-09-27T21:13:51.483Z,55.96
2022-09-27T21:16:23.960Z,55.73
2022-09-27T21:18:55.539Z,55.49
2022-09-27T21:21:24.122Z,57.40
2022-09-27T21:23:56.209Z,56.68
2022-09-27T21:26:24.381Z,56.66
2022-09-27T21:28:54.153Z,56.56
2022-09-27T21:31:23.863Z,56.23
2022-09-27T21:33:55.732Z,56.46
2022-09-27T21:36:23.676Z,56.73
2022-09-27T21:38:51.000Z,56.16
2022-09-27T21:41:18.199Z,56.10
2022-09-27T21:43:46.947Z,56.11
2022-09-27T21:46:16.532Z,56.25
2022-09-27T21:48:46.557Z,56.23
2022-09-27T21:51:17.494Z,55.99
2022-09-27T21:53:50.538Z,56.07
2022-09-27T21:56:20.608Z,55.78
2022-09-27T21:58:47.857Z,56.12
2022-09-27T22:01:18.406Z,56.26
2022-09-27T22:03:46.567Z,56.30
2022-09-27T22:06:19.544Z,55.78
2022-09-27T22:08:48.020Z,55.77
2022-09-27T22:11:24.536Z,54.93
2022-09-27T22:13:51.695Z,55.12
2022-09-27T22:16:20.362Z,54.95
2022-09-27T22:18:51.909Z,54.99
2022-09-27T22:21:26.427Z,55.17
2022-09-27T22:24:07.173Z,55.58
2022-09-27T22:26:37.348Z,54.96
2022-09-27T22:29:05.329Z,55.28
2022-09-27T22:31:33.134Z,55.50
2022-09-27T22:34:03.457Z,57.01
2022-09-27T22:36:32.409Z,56.32
2022-09-27T22:38:59.729Z,55.82
2022-09-27T22:41:26.592Z,55.58
2022-09-27T22:43:56.315Z,55.83
2022-09-27T22:46:23.071Z,55.80
2022-09-27T22:48:50.241Z,55.69
2022-09-27T22:51:17.489Z,55.91
2022-09-27T22:53:44.447Z,55.93
2022-09-27T22:56:16.360Z,55.98
2022-09-27T22:58:44.216Z,55.89
2022-09-27T23:01:23.090Z,56.24
2022-09-27T23:03:52.584Z,56.25
2022-09-27T23:06:21.186Z,57.09
2022-09-27T23:08:48.662Z,57.73
2022-09-27T23:11:17.888Z,57.80
2022-09-27T23:13:45.706Z,59.75
2022-09-27T23:16:14.966Z,58.47
2022-09-27T23:18:42.453Z,58.27
2022-09-27T23:21:11.151Z,59.63
2022-09-27T23:23:42.764Z,58.78
2022-09-27T23:26:13.426Z,58.29
2022-09-27T23:28:40.744Z,59.90
2022-09-27T23:31:13.804Z,61.48
2022-09-27T23:33:43.588Z,60.73
2022-09-27T23:36:15.212Z,60.26
2022-09-27T23:38:43.497Z,59.81
2022-09-27T23:41:13.711Z,59.36
2022-09-27T23:43:40.569Z,60.01
2022-09-27T23:46:08.785Z,58.53
2022-09-27T23:48:36.701Z,61.91
2022-09-27T23:51:05.911Z,62.30
2022-09-27T23:53:33.172Z,59.43
2022-09-27T23:56:02.761Z,58.78
2022-09-27T23:58:37.478Z,60.43
